Terminal Aerodrome Forecast
Issued by NWS Sioux Falls, SD

Home | Current Version | Previous Version | Graphics & Text | Print | Product List | Glossary Off
Versions: 1 2 3 4 5 6 7 8 9 10 11 12 13 14 15 16 17 18 19 20 21 22 23 24 25 26 27 28 29 30 31 32 33 34 35 36 37

000
FTUS43 KFSD 311735 CCA
TAFSUX
TAF COR
KSUX 311735Z 3118/0118 18009KT P6SM BKN080
      TEMPO 3122/3123 VRB28G45KT 2SM +TSRA OVC020CB
     FM010000 21005KT 6SM SHRA BKN050
     FM010400 30010KT P6SM BKN060
      TEMPO 0104/0107 -SHRA
     FM010800 33013KT P6SM SCT015 SCT080=

USA.gov is the U.S. government's official web portal to all federal, state and local government web resources and services.